Terminal Aerodrome Forecast
Issued by NWS Louisville, KY

Current Version | Previous Version | Text Only | Print | Product List | Glossary On
Versions: 1 2 3 4 5 6 7 8 9 10 11 12 13 14 15 16 17 18 19 20 21 22 23 24 25 26 27 28 29
586
FTUS43 KLMK 292320
TAFSDF
TAF
KSDF 292320Z 3000/0106 VRB04KT P6SM OVC130
     FM300700 09007KT P6SM -SHRA VCTS BKN060CB
     FM301600 12008KT P6SM -SHRA VCTS BKN040CB
     FM302000 16012G22KT P6SM -SHRA VCTS BKN022CB
     FM010000 17010KT P6SM -SHRA OVC040=

USA.gov is the U.S. government's official web portal to all federal, state and local government web resources and services.